Pierrepont, New York
Current Conditions -  °F | °C
As of 12:53 AM on Friday 28 Nov 2014 (Local Time) from KMSS Reporting Station
Light Snow Light Snow  
Wind Chill: 17°   Ceiling: 4100
Heat Index: 24°   Visibility: 4mi
Dew Point: 18°   Wind: 6mph
Humidity: 77%   Direction: 240°WSW
Pressure: 30.07"   Gusts: NA
Location:  44.5792°N, 75.1592°W
Report Text: KMSS 280553Z AUTO 24005KT 4SM -SN OVC041 M04/M08 A3007 RMK AO2 SLP189 P0000 60000 T10441078 11022 21044 58001
Loading
Personal Weather Stations






























Interactive Weather Map New forecast layout! Learn more

10-Day Weather Forecast

Advertisements
Track Severe Weather on mobile